Time;durP1;ratioP1;P1;durP2;ratioP2;P2;SDS_P1;SDS_P2;PMS_P1;PMS_P2;Temp;Humidity;BMP_temperature;BMP_pressure;BME280_temperature;BME280_humidity;BME280_pressure;Samples;Min_cycle;Max_cycle;Signal;HPM_P1;HPM_P2
2023/12/29 00:00:59;;;;;;;3.78;2.53;;;;;;;9.24;77.40;98050.03;5057413;28;20173;-78
2023/12/29 00:03:26;;;;;;;2.80;2.55;;;;;;;9.22;77.35;98044.00;5041134;28;20193;-78
2023/12/29 00:05:52;;;;;;;2.95;2.75;;;;;;;9.29;77.23;98043.03;5039532;28;20293;-78
2023/12/29 00:08:19;;;;;;;2.50;2.30;;;;;;;9.20;76.98;98025.28;5057294;28;20289;-79
2023/12/29 00:10:46;;;;;;;2.70;2.50;;;;;;;9.32;76.66;98044.50;5061064;28;20260;-78
2023/12/29 00:13:13;;;;;;;2.83;2.50;;;;;;;9.27;76.83;98042.38;5039620;28;20230;-80
2023/12/29 00:15:40;;;;;;;5.00;2.85;;;;;;;9.19;77.04;98039.81;5041208;28;20297;-79
2023/12/29 00:18:06;;;;;;;2.90;2.70;;;;;;;9.18;77.10;98048.94;5038649;28;20240;-79
2023/12/29 00:20:33;;;;;;;3.75;2.80;;;;;;;9.23;76.88;98043.81;5039501;28;20640;-79
2023/12/29 00:23:03;;;;;;;2.58;2.35;;;;;;;9.18;76.83;98034.59;5036765;28;20198;-79
2023/12/29 00:25:30;;;;;;;2.80;2.60;;;;;;;9.22;76.79;98044.84;5036571;28;20247;-79
2023/12/29 00:27:58;;;;;;;3.67;2.90;;;;;;;9.32;76.14;98039.13;5038132;28;20213;-79
2023/12/29 00:30:26;;;;;;;3.00;2.80;;;;;;;9.43;76.10;98036.69;5035998;28;20212;-79
2023/12/29 00:32:52;;;;;;;2.70;2.50;;;;;;;9.45;75.80;98044.63;5035753;28;20228;-79
2023/12/29 00:35:19;;;;;;;2.95;2.75;;;;;;;9.44;75.74;98042.94;5038826;28;20750;-79
2023/12/29 00:37:45;;;;;;;3.30;3.10;;;;;;;9.50;75.57;98046.72;5050189;28;20245;-78
2023/12/29 00:40:12;;;;;;;3.17;2.97;;;;;;;9.22;76.24;98035.91;5069180;28;21344;-79
2023/12/29 00:42:39;;;;;;;3.40;2.85;;;;;;;9.36;75.90;98041.22;5056213;28;20323;-79
2023/12/29 00:45:14;;;;;;;3.03;2.72;;;;;;;9.47;75.50;98037.16;5029275;28;20399;-78
2023/12/29 00:47:41;;;;;;;2.60;2.40;;;;;;;9.47;75.22;98039.84;5042960;28;20286;-78
2023/12/29 00:50:08;;;;;;;3.20;2.90;;;;;;;9.41;75.34;98041.50;5037498;28;20232;-79
2023/12/29 00:52:36;;;;;;;2.55;2.35;;;;;;;9.41;75.16;98046.06;5035999;28;20590;-78
2023/12/29 00:55:04;;;;;;;3.55;2.80;;;;;;;9.50;75.21;98052.13;5019700;28;20255;-79
2023/12/29 00:57:31;;;;;;;3.05;2.72;;;;;;;9.48;75.14;98052.31;5035190;28;20212;-79
2023/12/29 00:59:58;;;;;;;3.13;2.88;;;;;;;9.37;75.81;98042.06;5050126;28;20235;-78
2023/12/29 01:02:26;;;;;;;3.45;3.15;;;;;;;9.22;76.41;98049.41;4988928;28;20221;-78
2023/12/29 01:04:54;;;;;;;3.30;3.03;;;;;;;9.28;76.40;98064.84;5035654;28;20284;-78
2023/12/29 01:07:21;;;;;;;3.10;2.90;;;;;;;9.26;76.42;98054.22;5037228;28;20779;-78
2023/12/29 01:09:48;;;;;;;4.65;3.50;;;;;;;9.40;75.90;98045.22;5034119;28;20240;-78
2023/12/29 01:12:15;;;;;;;3.35;3.05;;;;;;;9.44;75.98;98053.75;5019942;28;20213;-78
2023/12/29 01:14:43;;;;;;;3.25;2.95;;;;;;;9.39;75.82;98056.22;5018899;28;20215;-78
2023/12/29 01:17:09;;;;;;;6.10;2.97;;;;;;;9.36;76.15;98051.19;5051442;28;20211;-78
2023/12/29 01:19:38;;;;;;;4.15;3.30;;;;;;;9.32;75.78;98045.34;5039966;28;20201;-78
2023/12/29 01:22:05;;;;;;;3.70;3.40;;;;;;;9.37;75.47;98042.91;5055184;28;20212;-78
2023/12/29 01:24:31;;;;;;;3.50;3.20;;;;;;;9.48;75.02;98048.78;5035274;28;20200;-79
2023/12/29 01:26:58;;;;;;;3.30;3.10;;;;;;;9.47;74.92;98044.41;5021988;28;20256;-78
2023/12/29 01:29:25;;;;;;;2.88;2.65;;;;;;;9.44;74.97;98043.78;5050838;28;20206;-78
2023/12/29 01:31:52;;;;;;;3.55;3.17;;;;;;;9.48;75.06;98048.78;5022308;28;20305;-77
2023/12/29 01:34:18;;;;;;;3.25;2.97;;;;;;;9.43;75.47;98044.81;5037409;28;20201;-78
2023/12/29 01:36:46;;;;;;;3.40;3.10;;;;;;;9.47;75.25;98045.25;5005809;28;20197;-78
2023/12/29 01:39:13;;;;;;;3.50;3.20;;;;;;;9.46;75.17;98037.34;5034618;28;20280;-78
2023/12/29 01:41:40;;;;;;;3.30;3.00;;;;;;;9.42;75.18;98035.03;5007976;28;20296;-78
2023/12/29 01:44:29;;;;;;;3.45;3.15;;;;;;;9.48;74.67;98033.41;5035552;28;20213;-78
2023/12/29 01:46:57;;;;;;;3.10;2.90;;;;;;;9.53;74.57;98019.31;5034723;28;20270;-79
2023/12/29 01:49:24;;;;;;;4.85;2.75;;;;;;;9.53;74.49;98022.03;5040437;28;20197;-78
2023/12/29 01:51:56;;;;;;;3.28;2.97;;;;;;;9.55;73.80;98039.72;5021546;28;20271;-78
2023/12/29 01:54:24;;;;;;;3.28;2.97;;;;;;;9.56;73.77;98027.88;5041816;28;20235;-78
2023/12/29 01:56:51;;;;;;;3.58;3.30;;;;;;;9.56;73.93;98027.03;5024931;28;20251;-78
2023/12/29 01:59:18;;;;;;;3.83;3.53;;;;;;;9.54;73.86;98015.59;5024448;28;20205;-78
2023/12/29 02:01:45;;;;;;;3.47;3.28;;;;;;;9.58;73.58;98016.88;5020910;28;20232;-78
2023/12/29 02:04:13;;;;;;;3.30;3.00;;;;;;;9.65;73.45;98013.19;5035864;28;20202;-78
2023/12/29 02:06:42;;;;;;;3.00;2.80;;;;;;;9.62;73.23;98016.28;5023757;28;20198;-78
2023/12/29 02:09:16;;;;;;;3.25;2.95;;;;;;;9.61;73.25;98011.09;5038143;28;20197;-78
2023/12/29 02:11:44;;;;;;;3.30;3.00;;;;;;;9.70;72.98;98005.34;5038795;28;20220;-78
2023/12/29 02:14:11;;;;;;;3.30;3.00;;;;;;;9.64;72.89;97989.06;5010520;28;20216;-78
2023/12/29 02:16:41;;;;;;;3.45;3.05;;;;;;;9.74;72.87;98011.19;5039130;28;20210;-79
2023/12/29 02:19:17;;;;;;;3.15;2.95;;;;;;;9.80;72.71;97999.56;5041078;28;20208;-78
2023/12/29 02:21:43;;;;;;;3.70;3.40;;;;;;;9.72;73.10;98002.44;5037290;28;20246;-78
2023/12/29 02:24:11;;;;;;;3.85;3.55;;;;;;;9.80;72.85;97993.31;5022519;28;20202;-79
2023/12/29 02:26:41;;;;;;;3.30;3.00;;;;;;;9.71;72.73;98003.47;5036923;28;20194;-78
2023/12/29 02:29:11;;;;;;;4.57;3.30;;;;;;;9.72;72.80;98002.44;5040856;28;20276;-78
2023/12/29 02:31:40;;;;;;;3.42;3.00;;;;;;;9.72;72.64;98007.84;5039057;28;20233;-78
2023/12/29 02:34:08;;;;;;;3.40;3.20;;;;;;;9.72;72.75;97997.03;5037631;28;20201;-79
2023/12/29 02:36:42;;;;;;;2.60;2.50;;;;;;;9.75;72.78;98012.84;5037635;28;20301;-78
2023/12/29 02:39:09;;;;;;;3.25;2.95;;;;;;;9.77;72.80;98016.16;5024979;28;20651;-78
2023/12/29 02:41:37;;;;;;;3.42;3.20;;;;;;;9.71;73.21;97995.38;5024262;28;20282;-78
2023/12/29 02:44:08;;;;;;;3.95;3.30;;;;;;;9.82;72.48;98007.47;5038282;28;20275;-78
2023/12/29 02:46:35;;;;;;;3.42;3.08;;;;;;;9.76;73.01;97993.72;5025194;28;20287;-79
2023/12/29 02:49:02;;;;;;;3.10;2.90;;;;;;;9.75;72.58;97986.63;5041431;28;20213;-78
2023/12/29 02:51:28;;;;;;;3.40;3.10;;;;;;;9.71;73.09;97993.50;5039302;28;21955;-78
2023/12/29 02:53:55;;;;;;;3.63;3.33;;;;;;;9.65;73.50;97998.84;5036556;28;20201;-79
2023/12/29 02:56:22;;;;;;;3.35;3.05;;;;;;;9.59;73.71;97981.56;5039641;28;20202;-78
2023/12/29 02:58:49;;;;;;;4.70;3.55;;;;;;;9.67;73.64;97984.13;5024397;28;20666;-78
2023/12/29 03:01:17;;;;;;;3.45;3.17;;;;;;;9.64;73.57;97972.88;5040055;28;20229;-79
2023/12/29 03:03:43;;;;;;;4.13;3.65;;;;;;;9.62;73.86;97981.16;5036822;28;20289;-78
2023/12/29 03:06:10;;;;;;;3.47;3.17;;;;;;;9.64;74.04;97965.59;5026143;28;20224;-78
2023/12/29 03:08:37;;;;;;;3.75;3.45;;;;;;;9.60;74.29;97977.81;5035616;28;20635;-79
2023/12/29 03:11:04;;;;;;;3.63;3.33;;;;;;;9.58;74.74;97989.84;5038836;28;20232;-78
2023/12/29 03:13:30;;;;;;;3.60;3.30;;;;;;;9.54;74.64;97989.41;5039788;28;20205;-79
2023/12/29 03:15:57;;;;;;;3.50;3.30;;;;;;;9.52;74.94;97975.28;5053062;28;20336;-79
2023/12/29 03:18:25;;;;;;;3.40;3.10;;;;;;;9.50;75.37;97974.63;5039579;28;20260;-79
2023/12/29 03:20:51;;;;;;;3.60;3.35;;;;;;;9.42;75.52;97972.91;5025400;28;20215;-79
2023/12/29 03:23:18;;;;;;;3.97;3.67;;;;;;;9.39;76.07;97981.44;5041901;28;20208;-79
2023/12/29 03:25:45;;;;;;;3.15;2.90;;;;;;;9.31;76.08;97934.81;5053547;28;20280;-79
2023/12/29 03:28:12;;;;;;;4.53;3.92;;;;;;;9.41;76.15;97968.56;5024826;28;20733;-79
2023/12/29 03:30:39;;;;;;;3.35;3.03;;;;;;;9.48;75.94;97973.16;5039691;28;20220;-79
2023/12/29 03:33:06;;;;;;;3.50;3.20;;;;;;;9.37;76.18;97964.59;5051691;28;20230;-79
2023/12/29 03:35:36;;;;;;;4.13;3.75;;;;;;;9.47;76.46;97957.97;5020510;28;20198;-78
2023/12/29 03:38:05;;;;;;;4.53;3.35;;;;;;;9.44;76.51;97965.44;5035903;28;20209;-79
2023/12/29 03:40:32;;;;;;;4.20;3.30;;;;;;;9.42;76.82;97970.19;5007542;28;20348;-79
2023/12/29 03:42:59;;;;;;;3.65;3.35;;;;;;;9.31;77.21;97965.34;5035582;28;20199;-79
2023/12/29 03:45:26;;;;;;;3.70;3.30;;;;;;;9.28;77.39;97967.63;5035263;28;20682;-79
2023/12/29 03:47:53;;;;;;;3.95;3.53;;;;;;;9.30;77.70;97966.38;5040207;28;20228;-79
2023/12/29 03:50:19;;;;;;;3.92;3.45;;;;;;;9.35;77.62;97976.59;5038716;28;20798;-79
2023/12/29 03:52:47;;;;;;;4.55;4.10;;;;;;;9.31;77.52;97968.06;5034312;28;20636;-79
2023/12/29 03:55:14;;;;;;;3.80;3.50;;;;;;;9.39;77.47;97975.19;5037527;28;20212;-79
2023/12/29 03:57:41;;;;;;;4.05;3.65;;;;;;;9.30;77.90;97981.75;5036574;28;20277;-78
2023/12/29 04:00:13;;;;;;;3.00;2.80;;;;;;;9.39;77.71;97976.03;5039754;28;20245;-78
2023/12/29 04:02:39;;;;;;;3.67;3.38;;;;;;;9.29;78.01;97974.69;5037299;28;20205;-78
2023/12/29 04:05:08;;;;;;;4.10;3.70;;;;;;;9.25;78.38;97973.41;5021979;28;20212;-79
2023/12/29 04:07:34;;;;;;;3.90;3.60;;;;;;;9.06;80.62;97964.13;5021541;28;21066;-79
2023/12/29 04:10:04;;;;;;;4.40;4.00;;;;;;;8.89;82.85;97957.31;5036439;28;20209;-78
2023/12/29 04:12:31;;;;;;;4.55;4.15;;;;;;;8.70;82.92;97959.63;5035829;28;20244;-78
2023/12/29 04:14:58;;;;;;;4.47;4.07;;;;;;;8.73;83.63;97958.41;5039269;28;20285;-77
2023/12/29 04:17:25;;;;;;;4.38;3.53;;;;;;;8.64;83.84;97949.59;5022274;28;20638;-77
2023/12/29 04:19:51;;;;;;;4.20;3.90;;;;;;;8.65;84.25;97953.97;5035100;28;20200;-78
2023/12/29 04:22:18;;;;;;;4.45;4.05;;;;;;;8.55;84.66;97958.00;5034899;28;20208;-78
2023/12/29 04:24:45;;;;;;;3.70;3.40;;;;;;;8.52;84.55;97956.53;5037032;28;20216;-77
2023/12/29 04:27:14;;;;;;;3.47;3.17;;;;;;;8.60;84.21;97937.53;5036074;28;20209;-78
2023/12/29 04:29:41;;;;;;;3.85;3.55;;;;;;;8.54;84.69;97938.28;5038580;28;20202;-79
2023/12/29 04:32:07;;;;;;;3.80;3.50;;;;;;;8.56;84.88;97946.19;5042659;28;20375;-76
2023/12/29 04:34:34;;;;;;;3.78;3.47;;;;;;;8.55;84.65;97955.31;5039224;28;20212;-77
2023/12/29 04:37:02;;;;;;;4.00;3.70;;;;;;;8.62;84.63;97956.22;5041080;28;20592;-77
2023/12/29 04:39:28;;;;;;;3.45;2.80;;;;;;;8.63;84.77;97950.63;5027588;28;20669;-77
2023/12/29 04:41:55;;;;;;;3.10;2.90;;;;;;;8.55;84.91;97958.84;5042029;28;20195;-77
2023/12/29 04:44:23;;;;;;;3.78;3.47;;;;;;;8.71;84.24;97960.47;5042520;28;20205;-77
2023/12/29 04:46:51;;;;;;;3.90;3.60;;;;;;;8.68;84.58;97956.28;5044883;28;20197;-77
2023/12/29 04:49:18;;;;;;;3.17;2.95;;;;;;;8.64;84.48;97968.50;5055012;28;20197;-77
2023/12/29 04:51:44;;;;;;;3.47;3.28;;;;;;;8.74;84.11;97966.31;5054158;28;20189;-76
2023/12/29 04:54:11;;;;;;;3.10;2.90;;;;;;;8.63;84.66;97972.22;5058554;28;20198;-77
2023/12/29 04:56:38;;;;;;;3.40;3.20;;;;;;;8.74;84.12;97974.41;5035961;28;20198;-78
2023/12/29 04:59:07;;;;;;;3.47;3.17;;;;;;;8.77;84.45;97972.34;5042943;28;20292;-77
2023/12/29 05:01:37;;;;;;;3.53;3.33;;;;;;;8.82;84.38;97978.81;5053022;28;20198;-77
2023/12/29 05:04:05;;;;;;;2.95;2.75;;;;;;;8.80;83.93;97982.75;5037755;28;20201;-77
2023/12/29 05:06:32;;;;;;;3.40;3.10;;;;;;;8.86;83.49;97984.66;5036711;28;20226;-76
2023/12/29 05:09:00;;;;;;;3.13;2.92;;;;;;;8.82;84.01;97980.69;5039942;28;20284;-77
2023/12/29 05:11:27;;;;;;;3.38;3.08;;;;;;;8.88;83.69;97977.22;5049074;28;20274;-78
2023/12/29 05:13:53;;;;;;;3.10;2.90;;;;;;;8.91;83.89;97971.44;5061500;28;20281;-77
2023/12/29 05:16:20;;;;;;;2.80;2.60;;;;;;;8.92;83.52;97975.81;5034181;28;20225;-78
2023/12/29 05:18:52;;;;;;;3.25;3.03;;;;;;;8.88;83.49;97969.97;5034461;28;20217;-80
2023/12/29 05:21:20;;;;;;;3.83;3.55;;;;;;;8.85;84.55;97993.78;5036543;28;20264;-81
2023/12/29 05:23:49;;;;;;;3.17;2.95;;;;;;;8.93;84.64;97980.19;5033828;28;20636;-81
2023/12/29 05:26:16;;;;;;;3.60;3.40;;;;;;;8.77;85.52;97975.06;5035193;28;20208;-78
2023/12/29 05:28:43;;;;;;;3.90;3.60;;;;;;;8.81;86.02;97979.00;5021418;28;20202;-78
2023/12/29 05:31:10;;;;;;;3.60;3.30;;;;;;;8.72;86.66;97976.47;5012732;28;20201;-80
2023/12/29 05:33:37;;;;;;;3.80;3.45;;;;;;;8.63;86.51;97971.38;5037437;28;20220;-80
2023/12/29 05:36:09;;;;;;;3.70;3.40;;;;;;;8.66;87.26;97979.09;5003655;28;21072;-74
2023/12/29 05:38:36;;;;;;;3.92;3.63;;;;;;;8.59;87.85;97975.47;5031585;28;20268;-72
2023/12/29 05:41:04;;;;;;;3.88;3.60;;;;;;;8.46;88.97;97973.47;5030410;28;20744;-72
2023/12/29 05:43:32;;;;;;;4.20;3.80;;;;;;;8.49;89.38;97975.78;5018491;28;20249;-72
2023/12/29 05:45:59;;;;;;;3.92;3.60;;;;;;;8.50;89.59;97974.75;5020856;28;20621;-72
2023/12/29 05:48:25;;;;;;;4.40;4.10;;;;;;;8.35;90.61;97964.03;5048458;28;20779;-72
2023/12/29 05:50:52;;;;;;;3.80;3.28;;;;;;;8.37;90.64;97972.75;5035325;28;20851;-72
2023/12/29 05:53:20;;;;;;;3.42;3.22;;;;;;;8.36;91.04;97978.34;5036427;28;20294;-72
2023/12/29 05:55:47;;;;;;;3.67;3.38;;;;;;;8.43;90.83;97973.88;5033736;28;20702;-71
2023/12/29 05:58:14;;;;;;;3.97;3.67;;;;;;;8.45;90.68;97969.09;5033745;28;20209;-72
2023/12/29 06:00:41;;;;;;;4.00;3.70;;;;;;;8.48;90.79;97984.06;5036098;28;20248;-72
2023/12/29 06:03:08;;;;;;;4.45;4.05;;;;;;;8.39;90.50;97968.00;5036743;28;20217;-72
2023/12/29 06:05:34;;;;;;;3.78;3.58;;;;;;;8.44;91.15;97983.63;5037674;28;20202;-72
2023/12/29 06:08:02;;;;;;;4.10;3.80;;;;;;;8.39;91.47;97973.41;5032205;28;20702;-72
2023/12/29 06:10:31;;;;;;;4.25;3.75;;;;;;;8.45;91.82;97979.06;5034539;28;20281;-72
2023/12/29 06:12:57;;;;;;;4.72;4.30;;;;;;;8.32;92.44;97968.91;5002711;28;20769;-72
2023/12/29 06:15:24;;;;;;;5.50;4.15;;;;;;;8.31;92.94;97969.94;5030772;28;20553;-72
2023/12/29 06:17:51;;;;;;;4.30;3.90;;;;;;;8.32;92.95;97975.19;5035349;28;20701;-72
2023/12/29 06:20:17;;;;;;;5.03;4.68;;;;;;;8.25;92.78;97982.31;5034053;28;20209;-72
2023/12/29 06:22:44;;;;;;;4.78;4.38;;;;;;;8.35;92.39;97973.97;5018093;28;20893;-72
2023/12/29 06:25:12;;;;;;;4.22;3.92;;;;;;;8.29;92.65;97977.38;5030235;28;20296;-71
2023/12/29 06:27:41;;;;;;;4.82;4.32;;;;;;;8.28;92.89;97981.09;5034945;28;20212;-72
2023/12/29 06:30:10;;;;;;;4.80;4.40;;;;;;;8.29;92.73;97966.59;5035360;28;20225;-72
2023/12/29 06:32:37;;;;;;;3.92;3.63;;;;;;;8.30;91.98;97968.28;5034953;28;20261;-72
2023/12/29 06:35:06;;;;;;;4.22;3.83;;;;;;;8.28;92.38;97970.31;5038316;28;20799;-72
2023/12/29 06:37:32;;;;;;;4.43;3.45;;;;;;;8.21;92.11;97978.31;5014021;28;20252;-71
2023/12/29 06:39:59;;;;;;;4.05;3.75;;;;;;;8.23;92.21;97967.34;5003495;28;20208;-72
2023/12/29 06:42:27;;;;;;;4.32;3.78;;;;;;;8.26;92.11;97961.59;5036856;28;20197;-72
2023/12/29 06:44:55;;;;;;;4.38;3.97;;;;;;;8.32;91.46;97944.66;5037491;28;20615;-72
2023/12/29 06:47:21;;;;;;;4.35;3.90;;;;;;;8.35;91.36;97953.22;5035221;28;20202;-70
2023/12/29 06:49:49;;;;;;;4.18;3.88;;;;;;;8.34;91.29;97948.03;5033374;28;20255;-72
2023/12/29 06:52:17;;;;;;;4.53;3.95;;;;;;;8.32;91.07;97955.44;5034412;28;20224;-72
2023/12/29 06:54:43;;;;;;;5.13;4.20;;;;;;;8.40;91.13;97947.28;5034288;28;20194;-71
2023/12/29 06:57:10;;;;;;;5.00;4.18;;;;;;;8.36;90.94;97956.78;5037159;28;20673;-71
2023/12/29 06:59:37;;;;;;;3.75;3.45;;;;;;;8.42;90.66;97953.31;5037900;28;20667;-71
2023/12/29 07:02:06;;;;;;;3.83;3.53;;;;;;;8.24;90.56;97924.03;5050447;28;20197;-69
2023/12/29 07:04:33;;;;;;;4.22;3.92;;;;;;;8.50;90.42;97952.34;5032632;28;20208;-70
2023/12/29 07:07:01;;;;;;;4.30;4.00;;;;;;;8.57;90.04;97961.34;5035878;28;20648;-76
2023/12/29 07:09:28;;;;;;;3.70;3.40;;;;;;;8.63;89.96;97957.88;5023999;28;20197;-75
2023/12/29 07:11:55;;;;;;;3.78;3.47;;;;;;;8.68;89.87;97958.16;5037920;28;20213;-74
2023/12/29 07:14:22;;;;;;;4.15;3.75;;;;;;;8.74;89.75;97968.19;5026722;28;20230;-74
2023/12/29 07:16:49;;;;;;;3.38;3.05;;;;;;;8.77;89.62;97962.41;5010519;28;20341;-77
2023/12/29 07:19:17;;;;;;;3.40;3.20;;;;;;;8.79;89.29;97951.38;5037642;28;20201;-76
2023/12/29 07:21:44;;;;;;;11.70;3.78;;;;;;;8.79;89.27;97951.38;5038289;28;20197;-76
2023/12/29 07:24:14;;;;;;;3.10;2.90;;;;;;;8.80;89.19;97958.44;5039780;28;20202;-77
2023/12/29 07:26:40;;;;;;;3.13;2.92;;;;;;;8.84;89.03;97952.47;5038453;28;20225;-77
2023/12/29 07:29:07;;;;;;;3.70;3.40;;;;;;;8.87;88.68;97954.78;5032631;28;20714;-76
2023/12/29 07:31:34;;;;;;;3.42;3.22;;;;;;;8.96;88.52;97958.19;5019810;28;20233;-77
2023/12/29 07:34:01;;;;;;;4.38;2.67;;;;;;;8.96;88.02;97950.09;5021652;28;20235;-77
2023/12/29 07:36:29;;;;;;;3.20;2.90;;;;;;;8.89;88.11;97935.72;5031445;28;20270;-77
2023/12/29 07:38:56;;;;;;;2.92;2.65;;;;;;;8.92;87.99;97935.31;5053639;28;20201;-77
2023/12/29 07:41:24;;;;;;;2.75;2.55;;;;;;;8.96;87.86;97950.94;5022436;28;20686;-76
2023/12/29 07:43:52;;;;;;;3.00;2.80;;;;;;;9.12;87.70;97946.28;5018016;28;20221;-77
2023/12/29 07:46:25;;;;;;;2.53;2.40;;;;;;;9.12;87.02;97946.28;5023214;28;20344;-77
2023/12/29 07:48:52;;;;;;;2.30;2.17;;;;;;;9.10;87.12;97939.22;5039299;28;20320;-77
2023/12/29 07:51:19;;;;;;;2.63;2.42;;;;;;;9.22;87.01;97942.22;5022023;28;20213;-77
2023/12/29 07:53:51;;;;;;;2.28;2.05;;;;;;;9.31;86.08;97946.44;5033201;28;20217;-77
2023/12/29 07:56:18;;;;;;;2.47;2.28;;;;;;;9.30;86.13;97949.34;5038214;28;20598;-76
2023/12/29 07:58:44;;;;;;;2.20;2.00;;;;;;;9.39;85.66;97959.81;5019531;28;20657;-77
2023/12/29 08:01:11;;;;;;;2.50;2.30;;;;;;;9.35;85.82;97955.00;5035119;28;20212;-76
2023/12/29 08:03:38;;;;;;;3.10;2.17;;;;;;;9.28;85.53;97952.25;5037399;28;20205;-77
2023/12/29 08:06:05;;;;;;;2.17;1.98;;;;;;;9.39;85.50;97954.41;5038665;28;20292;-78
2023/12/29 08:08:32;;;;;;;3.72;2.15;;;;;;;9.42;85.33;97964.78;5033712;28;20690;-77
2023/12/29 08:11:00;;;;;;;2.00;1.90;;;;;;;9.54;84.59;97953.47;5035541;28;20294;-76
2023/12/29 08:13:27;;;;;;;2.00;1.90;;;;;;;9.43;84.65;97944.84;5037448;28;20206;-80
2023/12/29 08:15:56;;;;;;;2.00;1.90;;;;;;;9.56;84.51;97959.50;5015522;28;20213;-77
2023/12/29 08:18:23;;;;;;;1.92;1.83;;;;;;;9.50;83.85;97952.19;5031958;28;20643;-76
2023/12/29 08:20:50;;;;;;;1.70;1.60;;;;;;;9.55;83.48;97957.84;5029911;28;20213;-76
2023/12/29 08:23:20;;;;;;;1.60;1.50;;;;;;;9.57;83.39;97964.72;5020703;28;21190;-77
2023/12/29 08:25:47;;;;;;;1.83;1.73;;;;;;;9.71;83.04;97957.53;5011810;28;20216;-76
2023/12/29 08:28:15;;;;;;;2.30;2.10;;;;;;;9.67;82.81;97962.50;5020539;28;20286;-76
2023/12/29 08:30:45;;;;;;;2.10;1.90;;;;;;;9.71;82.81;97969.19;5024562;28;20686;-77
2023/12/29 08:33:13;;;;;;;2.00;1.90;;;;;;;9.66;82.71;97970.81;5037145;28;20263;-76
2023/12/29 08:35:40;;;;;;;1.90;1.80;;;;;;;9.74;82.62;97970.66;5033404;28;20736;-75
2023/12/29 08:38:07;;;;;;;2.30;2.10;;;;;;;9.67;82.69;97962.50;5036686;28;20296;-76
2023/12/29 08:40:33;;;;;;;1.95;1.85;;;;;;;9.85;82.18;97970.06;5026212;28;20209;-76
2023/12/29 08:43:01;;;;;;;2.00;1.90;;;;;;;9.67;82.56;97980.56;5017406;28;20278;-72
2023/12/29 08:45:29;;;;;;;2.17;2.03;;;;;;;9.77;82.35;97983.75;5025381;28;20201;-75
2023/12/29 08:47:55;;;;;;;2.45;2.25;;;;;;;9.73;82.56;97977.09;5026208;28;20735;-75
2023/12/29 08:50:23;;;;;;;2.13;1.92;;;;;;;9.75;82.01;97977.69;5031240;28;20239;-75
2023/12/29 08:52:50;;;;;;;1.92;1.83;;;;;;;9.96;81.55;97977.63;5013749;28;20325;-76
2023/12/29 08:55:17;;;;;;;2.13;1.75;;;;;;;9.90;81.37;97977.59;5013722;28;20198;-76
2023/12/29 08:57:43;;;;;;;2.42;2.22;;;;;;;9.85;81.19;97986.28;5020033;28;20301;-75
2023/12/29 09:00:11;;;;;;;2.08;1.95;;;;;;;9.87;81.57;97981.53;5037214;28;20205;-74
2023/12/29 09:02:40;;;;;;;2.63;2.28;;;;;;;9.92;81.08;97987.19;5010520;28;20216;-75
2023/12/29 09:05:08;;;;;;;1.98;1.88;;;;;;;9.85;81.65;97978.19;5031700;28;21234;-75
2023/12/29 09:07:36;;;;;;;2.20;2.00;;;;;;;9.83;82.04;97977.53;5030318;28;20271;-75
2023/12/29 09:10:03;;;;;;;1.98;1.88;;;;;;;9.85;82.15;97986.28;5031848;28;20551;-75
2023/12/29 09:12:30;;;;;;;2.13;2.03;;;;;;;9.86;82.13;97985.25;5034787;28;20219;-75
2023/12/29 09:14:56;;;;;;;2.42;2.22;;;;;;;9.88;81.90;97974.25;5007287;28;20226;-75
2023/12/29 09:17:23;;;;;;;2.78;2.20;;;;;;;9.83;82.00;97976.72;5034385;28;20611;-76
2023/12/29 09:19:52;;;;;;;1.92;1.83;;;;;;;9.85;82.17;97991.69;5037398;28;20202;-75
2023/12/29 09:22:18;;;;;;;2.58;2.10;;;;;;;9.90;82.28;97989.25;5034188;28;20206;-76
2023/12/29 09:24:45;;;;;;;2.33;2.22;;;;;;;9.91;81.56;97996.31;5032885;28;20229;-76
2023/12/29 09:27:11;;;;;;;2.42;2.20;;;;;;;9.96;81.83;97993.84;5024658;28;20333;-75
2023/12/29 09:29:38;;;;;;;2.47;2.28;;;;;;;10.02;81.23;97993.06;5037143;28;20201;-75
2023/12/29 09:32:06;;;;;;;2.40;2.20;;;;;;;10.14;80.88;97989.78;5033594;28;20216;-75
2023/12/29 09:34:32;;;;;;;2.33;2.13;;;;;;;10.18;80.54;97991.88;5020415;28;20220;-75
2023/12/29 09:37:03;;;;;;;2.67;2.13;;;;;;;10.31;80.09;97996.56;5034457;28;20207;-75
2023/12/29 09:39:31;;;;;;;2.25;2.05;;;;;;;10.35;79.56;97995.13;5028550;28;20597;-75
2023/12/29 09:42:00;;;;;;;2.33;2.22;;;;;;;10.47;78.48;98012.44;5023458;28;20730;-76
2023/12/29 09:44:28;;;;;;;2.38;2.17;;;;;;;10.67;77.92;97982.75;5033645;28;20255;-76
2023/12/29 09:46:56;;;;;;;5.45;2.72;;;;;;;10.74;77.76;98002.50;5030496;28;20193;-76
2023/12/29 09:49:23;;;;;;;2.65;2.08;;;;;;;10.44;78.35;98010.97;5038530;28;20300;-73
2023/12/29 09:51:53;;;;;;;2.08;1.90;;;;;;;10.53;78.93;98021.59;5026293;28;20202;-76
2023/12/29 09:54:24;;;;;;;2.08;1.98;;;;;;;10.48;78.67;98015.97;5027227;28;20288;-76
2023/12/29 09:56:51;;;;;;;2.95;1.90;;;;;;;10.34;78.90;98023.22;5034576;28;20236;-76
2023/12/29 09:59:20;;;;;;;2.10;1.85;;;;;;;10.22;79.83;98024.81;5029505;28;21942;-79
2023/12/29 10:01:48;;;;;;;2.55;1.90;;;;;;;10.15;80.38;98018.47;5014077;28;20568;-77
2023/12/29 10:04:14;;;;;;;1.80;1.70;;;;;;;10.08;80.90;98019.28;5028952;28;20292;-70
2023/12/29 10:06:42;;;;;;;1.73;1.63;;;;;;;10.04;81.92;98026.16;5039369;28;20204;-76
2023/12/29 10:09:12;;;;;;;2.25;2.05;;;;;;;9.96;83.08;98025.47;5032596;28;20208;-76
2023/12/29 10:11:41;;;;;;;2.10;2.00;;;;;;;9.85;83.53;98016.03;5000028;28;20205;-78
2023/12/29 10:14:21;;;;;;;2.10;2.00;;;;;;;10.13;83.84;98004.31;5056104;28;20748;-77
2023/12/29 10:16:54;;;;;;;2.50;2.30;;;;;;;10.32;83.14;98003.63;5038234;28;20209;-76
2023/12/29 10:19:29;;;;;;;2.50;1.80;;;;;;;10.90;80.87;97995.91;5033890;28;20209;-77
2023/12/29 10:22:02;;;;;;;1.85;1.75;;;;;;;11.52;78.15;97994.69;5005962;28;20611;-76
2023/12/29 10:24:29;;;;;;;1.85;1.75;;;;;;;12.22;75.02;97972.28;5014834;28;20291;-77
2023/12/29 10:26:58;;;;;;;2.03;1.83;;;;;;;12.76;72.59;97982.66;5034794;28;20194;-77
2023/12/29 10:29:26;;;;;;;1.97;1.80;;;;;;;12.77;72.01;97968.03;5050330;28;20236;-77
2023/12/29 10:31:53;;;;;;;1.47;1.20;;;;;;;13.27;69.96;97973.59;5042367;28;20635;-77
2023/12/29 10:34:21;;;;;;;1.30;1.20;;;;;;;13.11;68.62;97974.09;5033992;28;20670;-77
2023/12/29 10:36:50;;;;;;;1.50;1.40;;;;;;;12.66;70.63;97974.19;5016302;28;20639;-77
2023/12/29 10:39:17;;;;;;;1.57;1.47;;;;;;;12.95;69.74;97969.19;5020491;28;20958;-77
2023/12/29 10:41:43;;;;;;;1.50;1.40;;;;;;;13.07;68.76;97960.09;5035588;28;20632;-77
2023/12/29 10:44:12;;;;;;;1.53;1.43;;;;;;;12.64;69.05;97929.28;5022296;28;20670;-77
2023/12/29 10:46:39;;;;;;;1.53;1.43;;;;;;;13.07;68.43;97959.28;5035014;28;20634;-77
2023/12/29 10:49:11;;;;;;;1.50;1.40;;;;;;;13.05;68.87;97961.38;5016543;28;20734;-77
2023/12/29 10:51:39;;;;;;;1.73;1.30;;;;;;;13.13;67.69;97936.66;5031861;28;20621;-77
2023/12/29 10:54:06;;;;;;;1.67;1.23;;;;;;;13.61;66.73;97941.50;5034186;28;20662;-77
2023/12/29 10:56:33;;;;;;;1.20;1.10;;;;;;;12.88;67.78;97952.09;5034067;28;20635;-77
2023/12/29 10:59:03;;;;;;;2.50;1.40;;;;;;;12.99;67.26;97943.25;5039259;28;20628;-76
2023/12/29 11:01:32;;;;;;;1.30;1.20;;;;;;;12.83;66.65;97927.47;5037250;28;20613;-77
2023/12/29 11:04:00;;;;;;;1.47;1.20;;;;;;;13.13;65.78;97939.38;5037753;28;20628;-79
2023/12/29 11:06:28;;;;;;;1.30;1.20;;;;;;;13.16;64.64;97919.13;5033812;28;20636;-77
2023/12/29 11:08:54;;;;;;;1.30;1.20;;;;;;;12.40;66.44;97898.28;5033197;28;20655;-76
2023/12/29 11:11:22;;;;;;;1.23;1.13;;;;;;;12.53;66.90;97917.22;5040853;28;20636;-77
2023/12/29 11:13:49;;;;;;;1.73;1.30;;;;;;;12.62;64.87;97926.78;5036089;28;20667;-77
2023/12/29 11:16:21;;;;;;;1.10;1.00;;;;;;;12.86;64.92;97917.00;5015770;28;20648;-77
2023/12/29 11:18:52;;;;;;;1.17;1.07;;;;;;;12.66;64.24;97914.44;5033343;28;20725;-77
2023/12/29 11:21:20;;;;;;;3.00;1.07;;;;;;;12.81;64.38;97924.16;5052448;28;20645;-74
2023/12/29 11:23:50;;;;;;;0.97;0.97;;;;;;;12.91;63.33;97919.06;5039717;28;20731;-72
2023/12/29 11:26:17;;;;;;;1.00;1.00;;;;;;;12.62;62.67;97910.50;5030438;28;21188;-77
2023/12/29 11:28:44;;;;;;;1.20;1.10;;;;;;;12.71;63.42;97914.59;5041875;28;20632;-74
2023/12/29 11:31:11;;;;;;;1.00;0.90;;;;;;;12.75;63.15;97917.69;5005914;28;20641;-78
2023/12/29 11:33:41;;;;;;;1.20;1.10;;;;;;;13.11;62.37;97904.28;5040339;28;20632;-75
2023/12/29 11:36:14;;;;;;;1.00;1.00;;;;;;;13.30;61.71;97902.47;5035203;28;20636;-76
2023/12/29 11:38:55;;;;;;;1.33;1.23;;;;;;;13.00;62.26;97912.28;5039954;28;21260;-76
2023/12/29 11:41:27;;;;;;;1.10;1.00;;;;;;;13.26;61.44;97898.53;5040668;28;20623;-78